Terminal Aerodrome Forecast
Issued by NWS

Home | Current Version | Previous Version | Text Only | Print | Product List | Glossary On
Versions: 1 2 3 4 5 6 7 8 9 10 11 12 13 14 15 16 17 18 19 20 21 22 23 24
000
FTUS45 KGJT 242015 AAA
TAFASE
TAF AMD
KASE 242015Z 2420/2518 34005KT P6SM VCSH BKN025
      TEMPO 2420/2423 32010G20KT
     FM250200 29007KT P6SM BKN015
     FM250500 27005KT P6SM BKN045
     FM250900 22005KT P6SM SCT060=

USA.gov is the U.S. government's official web portal to all federal, state and local government web resources and services.